Pagrindinis puslapis
METAR-TAF:

METAR-TAF

Oro uostai :

Afjonkarahisaras, Turkija

platuma: 38-45N, ilguma: 030-32E, Aukštis: 1034 m

METAR: trūkstamas

Laikas: 20:55 (17:55 UTC)

Prognozė

Ataskaita buvo paskelbta 4 valandos ir 15 minutes, ne 13:40 UTC
Prognozė galioja nuo 15 metu 15 UTC su 15 metu 24 UTC
Vėjas 14 kt iš Šiaurės/Šiaurės Rytų
Matomumas 10 km arba daugiau
nėra debesų žemiau 1500 m ir nėra kamuolinių lietaus debesų
Laikinai
nuo 15 metu 15 UTC su 15 metu 18 UTC
Vėjas 15 kt iš Šiaurės su gūsio iki 25 kt

TAF: LTAH 151340Z 1515/1524 02014KT CAVOK TEMPO 1515/1518 01015G25KT

Orai ataskaitas ir orų prognozės (METAR, TAF).

turimą stotys yra geltonos ir raudonos taškus žemėlapyje.

Perkelti pele per norėdami pamatyti stoties vardą.

Tada spustelėkite, norėdami matyti oro stebėjimo ir prognozės.

Norėdami pakeisti žemėlapį: spustelėkite ant žalios mygtukų su juodo kryžiaus žemyn,; žalią mygtuką su brūkšneliu, jei norite nutolinti; arba žalių rodyklių gretimoms žemėlapius.


METAR-TAF: